Terminal Aerodrome Forecast
Issued by NWS

Home | Current Version | Previous Version | Graphics & Text | Print | Product List | Glossary On
Versions: 1 2 3 4 5 6 7 8 9 10 11 12 13 14
000
FTUS43 KTOP 210711 AAA
TAFFOE
TAF AMD
KFOE 210711Z 2107/2206 32005KT 4SM BR OVC005
      TEMPO 2109/2113 1SM BR OVC003
     FM211500 30006KT 6SM BR BKN012
     FM211900 29006KT P6SM BKN040=

USA.gov is the U.S. government's official web portal to all federal, state and local government web resources and services.